createdAt,value
2023-12-05T00:01:25.284Z,15.82
2023-12-05T00:03:52.481Z,16.08
2023-12-05T00:06:19.781Z,14.73
2023-12-05T00:08:46.891Z,16.20
2023-12-05T00:11:14.025Z,16.20
2023-12-05T00:13:42.192Z,14.52
2023-12-05T00:16:10.926Z,14.25
2023-12-05T00:18:38.929Z,13.90
2023-12-05T00:21:06.968Z,14.48
2023-12-05T00:23:34.071Z,14.48
2023-12-05T00:26:01.072Z,14.15
2023-12-05T00:28:28.033Z,15.07
2023-12-05T00:30:55.216Z,15.10
2023-12-05T00:33:22.550Z,14.27
2023-12-05T00:35:49.748Z,14.10
2023-12-05T00:38:16.924Z,13.43
2023-12-05T00:40:43.973Z,15.10
2023-12-05T00:43:11.072Z,14.45
2023-12-05T00:45:38.200Z,14.50
2023-12-05T00:48:05.458Z,15.52
2023-12-05T00:50:37.784Z,15.27
2023-12-05T00:53:08.011Z,14.23
2023-12-05T00:55:36.900Z,15.90
2023-12-05T00:58:04.311Z,16.02
2023-12-05T01:00:31.339Z,16.38
2023-12-05T01:02:58.474Z,16.00
2023-12-05T01:05:25.931Z,15.23
2023-12-05T01:07:53.132Z,15.85
2023-12-05T01:10:20.258Z,15.90
2023-12-05T01:12:47.500Z,15.98
2023-12-05T01:15:14.682Z,17.83
2023-12-05T01:17:41.772Z,15.93
2023-12-05T01:20:12.365Z,16.63
2023-12-05T01:22:40.067Z,17.67
2023-12-05T01:25:08.724Z,16.73
2023-12-05T01:27:36.064Z,17.85
2023-12-05T01:30:04.342Z,16.52
2023-12-05T01:32:31.743Z,16.58
2023-12-05T01:34:58.844Z,16.63
2023-12-05T01:37:25.893Z,16.60
2023-12-05T01:39:53.006Z,17.73
2023-12-05T01:42:20.096Z,17.48
2023-12-05T01:44:47.124Z,17.77
2023-12-05T01:47:17.416Z,18.15
2023-12-05T01:49:46.236Z,18.27
2023-12-05T01:52:14.184Z,18.52
2023-12-05T01:54:41.785Z,18.10
2023-12-05T01:57:10.468Z,18.75
2023-12-05T01:59:37.915Z,16.42
2023-12-05T02:02:05.193Z,16.90
2023-12-05T02:04:33.203Z,18.42
2023-12-05T02:07:01.352Z,18.42
2023-12-05T02:09:28.427Z,17.08
2023-12-05T02:11:55.460Z,18.20
2023-12-05T02:14:22.520Z,17.63
2023-12-05T02:17:24.528Z,18.77
2023-12-05T02:20:09.998Z,16.77
2023-12-05T02:23:03.883Z,17.67
2023-12-05T02:25:41.359Z,15.98
2023-12-05T02:28:10.674Z,17.85
2023-12-05T02:30:38.044Z,17.75
2023-12-05T02:33:05.175Z,17.30
2023-12-05T02:35:32.664Z,17.90
2023-12-05T02:38:26.026Z,16.67
2023-12-05T02:41:14.165Z,17.77
2023-12-05T02:43:47.829Z,17.45
2023-12-05T02:46:18.619Z,17.50
2023-12-05T02:48:46.204Z,17.77
2023-12-05T02:51:13.974Z,17.05
2023-12-05T02:53:41.081Z,16.95
2023-12-05T02:56:08.535Z,17.60
2023-12-05T02:58:35.567Z,16.40
2023-12-05T03:01:03.313Z,15.75
2023-12-05T03:03:30.677Z,16.77
2023-12-05T03:05:57.853Z,17.00
2023-12-05T03:08:24.910Z,17.63
2023-12-05T03:10:58.860Z,17.88
2023-12-05T03:13:30.741Z,17.67
2023-12-05T03:15:57.787Z,18.42
2023-12-05T03:18:26.025Z,17.98
2023-12-05T03:20:56.197Z,16.80
2023-12-05T03:23:23.341Z,17.58
2023-12-05T03:25:50.416Z,17.48
2023-12-05T03:28:17.490Z,17.38
2023-12-05T03:30:44.573Z,16.85
2023-12-05T03:33:11.732Z,17.08
2023-12-05T03:35:38.832Z,16.40
2023-12-05T03:38:05.873Z,17.15
2023-12-05T03:40:33.784Z,16.98
2023-12-05T03:43:00.781Z,16.88
2023-12-05T03:45:28.010Z,17.52
2023-12-05T03:47:55.108Z,17.73
2023-12-05T03:50:22.548Z,18.25
2023-12-05T03:52:49.661Z,19.23
2023-12-05T03:55:16.733Z,18.33
2023-12-05T03:57:43.783Z,17.65
2023-12-05T04:00:11.465Z,17.15
2023-12-05T04:02:43.682Z,18.13
2023-12-05T04:05:11.865Z,17.95
2023-12-05T04:07:39.003Z,17.17
2023-12-05T04:10:06.780Z,16.98
2023-12-05T04:12:33.900Z,18.17
2023-12-05T04:15:01.045Z,17.55
2023-12-05T04:17:28.287Z,18.60
2023-12-05T04:19:55.275Z,18.13
2023-12-05T04:22:22.357Z,19.25
2023-12-05T04:24:49.573Z,18.05
2023-12-05T04:27:16.839Z,19.25
2023-12-05T04:29:44.157Z,19.02
2023-12-05T04:32:11.730Z,18.88
2023-12-05T04:34:43.048Z,18.05
2023-12-05T04:37:10.285Z,16.75
2023-12-05T04:39:37.346Z,17.52
2023-12-05T04:42:05.572Z,20.40
2023-12-05T04:44:33.197Z,19.73
2023-12-05T04:47:01.072Z,19.00
2023-12-05T04:49:28.180Z,19.55
2023-12-05T04:51:55.510Z,19.40
2023-12-05T04:54:22.800Z,20.30
2023-12-05T04:56:49.923Z,19.60
2023-12-05T04:59:17.070Z,20.42
2023-12-05T05:01:44.894Z,20.52
2023-12-05T05:04:12.176Z,20.05
2023-12-05T05:06:39.449Z,20.33
2023-12-05T05:09:06.690Z,21.27
2023-12-05T05:11:34.282Z,21.40
2023-12-05T05:14:02.331Z,20.73
2023-12-05T05:16:30.272Z,19.63
2023-12-05T05:18:57.606Z,20.33
2023-12-05T05:21:25.180Z,22.67
2023-12-05T05:23:52.472Z,21.05
2023-12-05T05:26:19.870Z,20.83
2023-12-05T05:28:46.935Z,20.92
2023-12-05T05:31:14.010Z,21.13
2023-12-05T05:33:41.192Z,21.33
2023-12-05T05:36:09.184Z,21.52
2023-12-05T05:38:36.283Z,21.10
2023-12-05T05:41:07.900Z,20.52
2023-12-05T05:43:35.705Z,21.13
2023-12-05T05:46:03.339Z,21.77
2023-12-05T05:48:30.603Z,21.30
2023-12-05T05:50:57.798Z,21.92
2023-12-05T05:53:25.048Z,22.05
2023-12-05T05:55:52.127Z,20.10
2023-12-05T05:58:19.245Z,20.90
2023-12-05T06:00:47.044Z,21.65
2023-12-05T06:03:14.720Z,21.27
2023-12-05T06:05:41.913Z,21.48
2023-12-05T06:08:09.359Z,21.75
2023-12-05T06:10:36.972Z,21.38
2023-12-05T06:13:04.136Z,22.48
2023-12-05T06:15:32.195Z,22.33
2023-12-05T06:17:59.335Z,21.23
2023-12-05T06:20:26.517Z,21.50
2023-12-05T06:22:53.647Z,22.27
2023-12-05T06:25:20.835Z,21.92
2023-12-05T06:27:48.062Z,22.40
2023-12-05T06:30:21.606Z,21.90
2023-12-05T06:32:52.472Z,21.95
2023-12-05T06:35:19.663Z,22.65
2023-12-05T06:37:46.965Z,22.90
2023-12-05T06:40:14.289Z,21.73
2023-12-05T06:42:42.179Z,22.50
2023-12-05T06:45:10.174Z,22.30
2023-12-05T06:47:37.666Z,21.98
2023-12-05T06:50:11.343Z,22.77
2023-12-05T06:52:41.119Z,23.42
2023-12-05T06:55:09.303Z,23.27
2023-12-05T06:57:36.464Z,23.17
2023-12-05T07:00:05.131Z,23.25
2023-12-05T07:02:32.483Z,24.15
2023-12-05T07:05:00.287Z,22.17
2023-12-05T07:07:27.789Z,23.08
2023-12-05T07:09:54.877Z,23.90
2023-12-05T07:12:22.373Z,23.65
2023-12-05T07:14:49.528Z,24.80
2023-12-05T07:17:16.685Z,22.00
2023-12-05T07:19:43.817Z,24.27
2023-12-05T07:22:11.265Z,22.70
2023-12-05T07:24:40.731Z,25.83
2023-12-05T07:27:08.345Z,22.55
2023-12-05T07:29:35.615Z,22.33
2023-12-05T07:32:02.774Z,23.45
2023-12-05T07:34:29.971Z,25.00
2023-12-05T07:36:57.168Z,24.08
2023-12-05T07:39:26.726Z,23.95
2023-12-05T07:41:53.987Z,24.63
2023-12-05T07:44:21.148Z,23.25
2023-12-05T07:46:48.307Z,23.33
2023-12-05T07:49:16.047Z,23.98
2023-12-05T07:51:43.341Z,22.42
2023-12-05T07:54:10.557Z,22.05
2023-12-05T07:56:37.697Z,22.40
2023-12-05T07:59:04.837Z,22.55
2023-12-05T08:01:32.246Z,22.00
2023-12-05T08:04:02.736Z,20.92
2023-12-05T08:06:29.808Z,21.88
2023-12-05T08:08:57.661Z,33.20
2023-12-05T08:11:24.687Z,22.25
2023-12-05T08:13:51.851Z,20.75
2023-12-05T08:16:19.023Z,20.75
2023-12-05T08:18:46.325Z,20.15
2023-12-05T08:21:13.697Z,19.88
2023-12-05T08:23:40.708Z,19.80
2023-12-05T08:26:08.368Z,22.00
2023-12-05T08:28:35.883Z,19.60
2023-12-05T08:31:03.570Z,18.95
2023-12-05T08:33:30.912Z,20.35
2023-12-05T08:35:58.163Z,19.10
2023-12-05T08:38:25.620Z,20.20
2023-12-05T08:40:52.969Z,20.30
2023-12-05T08:43:20.065Z,19.77
2023-12-05T08:45:47.330Z,19.65
2023-12-05T08:48:14.521Z,19.00
2023-12-05T08:50:43.203Z,19.73
2023-12-05T08:53:10.438Z,18.33
2023-12-05T08:55:37.659Z,18.38
2023-12-05T08:58:05.369Z,18.60
2023-12-05T09:00:33.432Z,20.25
2023-12-05T09:03:01.432Z,29.38
2023-12-05T09:05:29.434Z,19.23
2023-12-05T09:07:56.743Z,18.65
2023-12-05T09:10:24.063Z,17.15
2023-12-05T09:12:51.510Z,18.27
2023-12-05T09:15:18.858Z,17.70
2023-12-05T09:17:46.175Z,17.70
2023-12-05T09:20:13.552Z,18.30
2023-12-05T09:22:41.284Z,17.25
2023-12-05T09:25:08.872Z,17.23
2023-12-05T09:27:36.374Z,17.85
2023-12-05T09:30:04.243Z,17.40
2023-12-05T09:32:32.329Z,17.15
2023-12-05T09:35:00.611Z,17.75
2023-12-05T09:37:28.289Z,16.48
2023-12-05T09:39:55.473Z,16.95
2023-12-05T09:42:26.646Z,17.30
2023-12-05T09:44:55.955Z,16.55
2023-12-05T09:47:23.248Z,16.63
2023-12-05T09:49:50.964Z,16.95
2023-12-05T09:52:19.153Z,18.33
2023-12-05T09:54:48.631Z,18.38
2023-12-05T09:57:15.789Z,17.15
2023-12-05T09:59:43.165Z,17.25
2023-12-05T10:02:12.389Z,16.77
2023-12-05T10:04:45.899Z,17.05
2023-12-05T10:07:14.206Z,15.93
2023-12-05T10:09:43.876Z,16.98
2023-12-05T10:12:13.175Z,16.95
2023-12-05T10:14:41.880Z,17.50
2023-12-05T10:17:09.434Z,17.33
2023-12-05T10:19:37.887Z,16.85
2023-12-05T10:22:05.789Z,16.67
2023-12-05T10:24:49.629Z,17.60
2023-12-05T10:27:17.946Z,16.35
2023-12-05T10:29:45.412Z,15.95
2023-12-05T10:32:14.694Z,16.80
2023-12-05T10:35:02.898Z,16.25
2023-12-05T10:37:31.324Z,17.00
2023-12-05T10:39:59.904Z,15.90
2023-12-05T10:42:31.281Z,18.38
2023-12-05T10:44:58.629Z,15.85
2023-12-05T10:47:28.421Z,16.52
2023-12-05T10:49:56.194Z,16.10
2023-12-05T10:52:23.595Z,16.15
2023-12-05T10:54:58.832Z,15.80
2023-12-05T10:57:35.365Z,16.52
2023-12-05T11:00:07.703Z,15.27
2023-12-05T11:02:38.395Z,16.40
2023-12-05T11:05:07.604Z,15.18
2023-12-05T11:07:34.707Z,17.45
2023-12-05T11:10:02.045Z,15.18
2023-12-05T11:12:29.943Z,16.90
2023-12-05T11:14:59.912Z,16.02
2023-12-05T11:17:33.039Z,15.57
2023-12-05T11:20:25.629Z,15.00
2023-12-05T11:23:16.636Z,16.08
2023-12-05T11:26:14.332Z,16.10
2023-12-05T11:28:53.484Z,16.13
2023-12-05T11:31:44.601Z,15.90
2023-12-05T11:34:36.572Z,14.80
2023-12-05T11:37:16.726Z,14.68
2023-12-05T11:39:44.332Z,14.02
2023-12-05T11:42:13.658Z,14.85
2023-12-05T11:44:41.696Z,14.75
2023-12-05T11:47:18.053Z,15.73
2023-12-05T11:50:04.689Z,15.68
2023-12-05T11:52:40.649Z,16.00
2023-12-05T11:55:10.217Z,14.90
2023-12-05T11:57:37.692Z,15.13
2023-12-05T12:00:05.746Z,15.35
2023-12-05T12:02:44.189Z,13.70
2023-12-05T12:05:13.555Z,14.43
2023-12-05T12:07:51.480Z,15.23
2023-12-05T12:10:19.325Z,14.15
2023-12-05T12:12:47.496Z,14.05
2023-12-05T12:15:22.666Z,14.82
2023-12-05T12:17:50.376Z,14.10
2023-12-05T12:20:18.973Z,14.48
2023-12-05T12:22:50.831Z,13.40
2023-12-05T12:25:19.263Z,14.23
2023-12-05T12:27:46.621Z,13.63
2023-12-05T12:30:16.715Z,13.77
2023-12-05T12:32:59.137Z,13.25
2023-12-05T12:35:29.449Z,13.10
2023-12-05T12:37:57.577Z,13.63
2023-12-05T12:40:25.763Z,13.43
2023-12-05T12:42:56.747Z,13.95
2023-12-05T12:45:26.549Z,13.57
2023-12-05T12:47:54.456Z,13.35
2023-12-05T12:50:21.739Z,16.90
2023-12-05T12:52:50.169Z,14.27
2023-12-05T12:55:20.659Z,13.32
2023-12-05T12:57:51.525Z,13.65
2023-12-05T13:03:04.867Z,14.15
2023-12-05T13:05:33.919Z,14.82
2023-12-05T13:08:01.623Z,14.07
2023-12-05T13:10:29.558Z,14.38
2023-12-05T13:13:03.520Z,13.50
2023-12-05T13:15:32.015Z,13.00
2023-12-05T13:18:08.346Z,12.65
2023-12-05T13:20:56.334Z,14.10
2023-12-05T13:23:24.023Z,13.65
2023-12-05T13:25:51.557Z,18.17
2023-12-05T13:28:21.913Z,13.70
2023-12-05T13:30:49.207Z,13.77
2023-12-05T13:33:17.191Z,13.57
2023-12-05T13:35:45.064Z,13.75
2023-12-05T13:38:12.978Z,13.40
2023-12-05T13:40:40.107Z,13.95
2023-12-05T13:43:08.081Z,12.85
2023-12-05T13:45:35.466Z,13.95
2023-12-05T13:48:03.245Z,12.88
2023-12-05T13:50:30.478Z,12.63
2023-12-05T13:52:58.006Z,12.00
2023-12-05T13:55:26.131Z,16.05
2023-12-05T13:57:54.129Z,14.00
2023-12-05T14:00:21.810Z,13.02
2023-12-05T14:02:49.518Z,13.48
2023-12-05T14:05:16.965Z,13.10
2023-12-05T14:07:44.604Z,14.48
2023-12-05T14:10:12.557Z,14.52
2023-12-05T14:12:39.711Z,14.20
2023-12-05T14:15:07.888Z,14.50
2023-12-05T14:17:35.453Z,13.77
2023-12-05T14:20:07.814Z,13.60
2023-12-05T14:22:36.048Z,14.90
2023-12-05T14:25:08.261Z,15.02
2023-12-05T14:30:06.024Z,14.73
2023-12-05T14:32:33.454Z,14.13
2023-12-05T14:35:01.176Z,15.20
2023-12-05T14:37:29.034Z,14.77
2023-12-05T14:39:57.384Z,15.07
2023-12-05T14:42:25.120Z,13.70
2023-12-05T14:44:52.419Z,14.18
2023-12-05T14:47:19.770Z,14.18
2023-12-05T14:49:46.954Z,13.60
2023-12-05T14:52:14.156Z,12.88
2023-12-05T14:54:41.750Z,13.23
2023-12-05T14:57:08.873Z,11.90
2023-12-05T14:59:36.003Z,12.57
2023-12-05T15:02:03.239Z,13.98
2023-12-05T15:04:30.625Z,12.38
2023-12-05T15:06:57.966Z,12.32
2023-12-05T15:09:26.194Z,12.27
2023-12-05T15:11:53.827Z,12.32
2023-12-05T15:14:20.950Z,10.85
2023-12-05T15:16:48.511Z,13.68
2023-12-05T15:19:16.138Z,12.65
2023-12-05T15:21:43.407Z,12.55
2023-12-05T15:24:10.561Z,13.75
2023-12-05T15:26:37.705Z,12.52
2023-12-05T15:29:04.878Z,11.75
2023-12-05T15:31:31.983Z,10.88
2023-12-05T15:33:59.593Z,11.15
2023-12-05T15:36:26.835Z,10.25
2023-12-05T15:38:54.263Z,10.13
2023-12-05T15:41:21.975Z,9.63
2023-12-05T15:43:49.156Z,10.40
2023-12-05T15:46:23.363Z,10.18
2023-12-05T15:48:51.682Z,10.20
2023-12-05T15:51:19.176Z,10.70
2023-12-05T15:53:46.748Z,10.27
2023-12-05T15:56:14.659Z,9.55
2023-12-05T15:58:42.339Z,11.05
2023-12-05T16:01:09.682Z,14.77
2023-12-05T16:03:37.105Z,11.32
2023-12-05T16:06:04.492Z,10.35
2023-12-05T16:08:31.570Z,10.93
2023-12-05T16:10:58.686Z,9.27
2023-12-05T16:13:26.040Z,9.93
2023-12-05T16:15:53.304Z,10.60
2023-12-05T16:18:20.654Z,9.30
2023-12-05T16:20:49.742Z,9.32
2023-12-05T16:23:16.883Z,9.38
2023-12-05T16:25:44.020Z,9.73
2023-12-05T16:28:11.237Z,9.68
2023-12-05T16:30:38.349Z,11.05
2023-12-05T16:33:05.724Z,11.07
2023-12-05T16:35:33.306Z,13.85
2023-12-05T16:38:00.495Z,9.63
2023-12-05T16:40:27.622Z,10.13
2023-12-05T16:42:54.745Z,13.02
2023-12-05T16:45:25.961Z,10.57
2023-12-05T16:47:59.294Z,10.70
2023-12-05T16:50:29.728Z,10.23
2023-12-05T16:52:57.303Z,10.48
2023-12-05T16:55:24.765Z,10.07
2023-12-05T16:57:52.415Z,9.57
2023-12-05T17:00:20.226Z,10.02
2023-12-05T17:02:47.399Z,8.95
2023-12-05T17:05:15.513Z,9.77
2023-12-05T17:07:44.031Z,9.48
2023-12-05T17:10:12.030Z,9.90
2023-12-05T17:12:39.361Z,9.77
2023-12-05T17:15:09.419Z,8.98
2023-12-05T17:17:36.764Z,9.00
2023-12-05T17:20:04.696Z,10.00
2023-12-05T17:22:32.910Z,10.40
2023-12-05T17:25:00.735Z,10.10
2023-12-05T17:27:28.067Z,9.82
2023-12-05T17:29:56.767Z,9.23
2023-12-05T17:32:28.090Z,9.75
2023-12-05T17:34:57.238Z,10.02
2023-12-05T17:37:25.638Z,9.27
2023-12-05T17:39:54.051Z,9.52
2023-12-05T17:42:21.079Z,9.38
2023-12-05T17:44:52.481Z,9.45
2023-12-05T17:47:21.068Z,10.00
2023-12-05T17:49:49.709Z,9.93
2023-12-05T17:52:16.818Z,9.50
2023-12-05T17:54:45.119Z,9.75
2023-12-05T17:57:12.242Z,9.82
2023-12-05T17:59:39.544Z,10.05
2023-12-05T18:02:07.113Z,10.65
2023-12-05T18:04:35.246Z,9.50
2023-12-05T18:07:50.316Z,10.55
2023-12-05T18:09:52.212Z,10.18
2023-12-05T18:12:20.736Z,10.45
2023-12-05T18:14:48.086Z,10.05
2023-12-05T18:17:15.345Z,10.98
2023-12-05T18:19:48.513Z,9.50
2023-12-05T18:22:18.314Z,11.23
2023-12-05T18:24:45.401Z,11.07
2023-12-05T18:27:15.529Z,12.68
2023-12-05T18:29:45.346Z,11.05
2023-12-05T18:32:12.857Z,11.43
2023-12-05T18:34:40.841Z,11.40
2023-12-05T18:37:08.344Z,11.50
2023-12-05T18:39:35.677Z,11.07
2023-12-05T18:42:04.145Z,11.20
2023-12-05T18:44:31.484Z,10.85
2023-12-05T18:46:58.522Z,10.82
2023-12-05T18:49:26.197Z,10.77
2023-12-05T18:51:54.951Z,11.20
2023-12-05T18:54:23.062Z,10.88
2023-12-05T18:56:50.901Z,11.55
2023-12-05T18:59:18.049Z,10.88
2023-12-05T19:01:46.056Z,12.75
2023-12-05T19:04:13.392Z,12.18
2023-12-05T19:06:40.476Z,13.65
2023-12-05T19:09:08.425Z,12.90
2023-12-05T19:11:35.606Z,13.25
2023-12-05T19:14:03.561Z,12.98
2023-12-05T19:16:32.903Z,13.43
2023-12-05T19:19:02.044Z,13.27
2023-12-05T19:21:30.609Z,12.27
2023-12-05T19:24:00.142Z,13.35
2023-12-05T19:26:28.721Z,13.60
2023-12-05T19:28:58.429Z,13.13
2023-12-05T19:31:29.551Z,12.77
2023-12-05T19:33:57.304Z,11.97
2023-12-05T19:36:24.874Z,12.45
2023-12-05T19:38:53.683Z,12.07
2023-12-05T19:41:20.791Z,11.25
2023-12-05T19:43:49.000Z,12.02
2023-12-05T19:46:16.478Z,13.05
2023-12-05T19:48:45.171Z,12.60
2023-12-05T19:51:12.864Z,11.77
2023-12-05T19:53:40.173Z,12.48
2023-12-05T19:56:08.196Z,12.32
2023-12-05T19:58:36.852Z,13.18
2023-12-05T20:01:04.478Z,11.70
2023-12-05T20:03:32.127Z,12.63
2023-12-05T20:06:00.462Z,13.45
2023-12-05T20:08:28.182Z,13.07
2023-12-05T20:10:55.420Z,12.88
2023-12-05T20:13:23.659Z,12.25
2023-12-05T20:15:51.040Z,12.38
2023-12-05T20:18:18.388Z,12.50
2023-12-05T20:20:46.105Z,12.23
2023-12-05T20:23:13.225Z,11.68
2023-12-05T20:25:40.484Z,11.98
2023-12-05T20:28:07.587Z,11.38
2023-12-05T20:30:35.092Z,11.18
2023-12-05T20:33:03.982Z,10.98
2023-12-05T20:35:32.219Z,11.15
2023-12-05T20:37:59.292Z,10.80
2023-12-05T20:40:26.502Z,10.05
2023-12-05T20:42:54.144Z,10.48
2023-12-05T20:45:21.344Z,10.13
2023-12-05T20:47:48.623Z,9.10
2023-12-05T20:50:15.788Z,8.13
2023-12-05T20:52:43.759Z,9.05
2023-12-05T20:55:10.939Z,8.88
2023-12-05T20:57:38.121Z,9.25
2023-12-05T21:00:06.541Z,9.05
2023-12-05T21:02:34.945Z,8.40
2023-12-05T21:05:02.417Z,9.20
2023-12-05T21:07:31.309Z,7.80
2023-12-05T21:09:59.481Z,8.45
2023-12-05T21:12:26.785Z,8.77
2023-12-05T21:14:53.875Z,8.43
2023-12-05T21:17:21.435Z,8.88
2023-12-05T21:19:48.725Z,8.52
2023-12-05T21:22:16.179Z,8.50
2023-12-05T21:24:43.389Z,8.40
2023-12-05T21:27:10.618Z,8.32
2023-12-05T21:29:37.845Z,9.40
2023-12-05T21:32:05.410Z,8.15
2023-12-05T21:34:33.344Z,7.45
2023-12-05T21:37:00.641Z,7.47
2023-12-05T21:39:27.772Z,7.88
2023-12-05T21:41:55.609Z,8.50
2023-12-05T21:44:22.833Z,7.40
2023-12-05T21:46:50.192Z,7.20
2023-12-05T21:49:17.678Z,6.63
2023-12-05T21:51:44.821Z,7.78
2023-12-05T21:54:11.944Z,6.50
2023-12-05T21:56:39.026Z,6.80
2023-12-05T21:59:06.146Z,6.93
2023-12-05T22:01:34.507Z,6.43
2023-12-05T22:04:01.884Z,6.47
2023-12-05T22:06:29.349Z,6.40
2023-12-05T22:08:56.392Z,9.13
2023-12-05T22:11:23.876Z,7.43
2023-12-05T22:13:51.216Z,7.78
2023-12-05T22:16:19.130Z,6.65
2023-12-05T22:18:47.416Z,6.43
2023-12-05T22:21:14.663Z,5.97
2023-12-05T22:23:42.216Z,6.80
2023-12-05T22:26:10.230Z,6.05
2023-12-05T22:28:37.555Z,6.00
2023-12-05T22:31:05.854Z,6.30
2023-12-05T22:33:33.265Z,6.35
2023-12-05T22:36:01.343Z,6.30
2023-12-05T22:38:28.423Z,6.95
2023-12-05T22:40:55.915Z,5.40
2023-12-05T22:43:23.195Z,5.43
2023-12-05T22:45:50.535Z,6.03
2023-12-05T22:48:18.399Z,5.90
2023-12-05T22:50:46.234Z,5.78
2023-12-05T22:53:13.291Z,5.65
2023-12-05T22:55:40.467Z,5.60
2023-12-05T22:58:07.722Z,5.53
2023-12-05T23:00:35.187Z,4.90
2023-12-05T23:03:02.600Z,5.60
2023-12-05T23:05:30.465Z,5.18
2023-12-05T23:07:57.865Z,5.47
2023-12-05T23:10:25.406Z,5.00
2023-12-05T23:12:53.502Z,5.25
2023-12-05T23:15:20.584Z,4.85
2023-12-05T23:17:47.886Z,4.95
2023-12-05T23:20:15.449Z,4.78
2023-12-05T23:22:42.795Z,4.93
2023-12-05T23:25:11.276Z,5.22
2023-12-05T23:27:38.480Z,5.65
2023-12-05T23:30:06.682Z,5.68
2023-12-05T23:32:34.516Z,5.50
2023-12-05T23:35:02.334Z,6.05
2023-12-05T23:37:30.199Z,4.95
2023-12-05T23:39:57.635Z,5.80
2023-12-05T23:42:25.181Z,6.68
2023-12-05T23:44:52.304Z,6.00
2023-12-05T23:47:22.862Z,5.82
2023-12-05T23:49:50.965Z,6.47
2023-12-05T23:52:18.149Z,6.47
2023-12-05T23:54:46.519Z,6.55
2023-12-05T23:57:14.524Z,6.68
2023-12-05T23:59:41.736Z,6.95
